sensor_id;sensor_type;location;lat;lon;timestamp;P1;durP1;ratioP1;P2;durP2;ratioP2
5650;SDS011;40241;52.684;9.758;2022-07-29T00:02:11;1.20;;;0.80;;
5650;SDS011;40241;52.684;9.758;2022-07-29T00:04:36;0.73;;;0.60;;
5650;SDS011;40241;52.684;9.758;2022-07-29T00:07:02;1.27;;;0.70;;
5650;SDS011;40241;52.684;9.758;2022-07-29T00:09:29;1.73;;;0.70;;
5650;SDS011;40241;52.684;9.758;2022-07-29T00:11:54;1.23;;;0.70;;
5650;SDS011;40241;52.684;9.758;2022-07-29T00:14:23;1.10;;;0.53;;
5650;SDS011;40241;52.684;9.758;2022-07-29T00:16:49;0.90;;;0.60;;
5650;SDS011;40241;52.684;9.758;2022-07-29T00:19:14;1.00;;;0.70;;
5650;SDS011;40241;52.684;9.758;2022-07-29T00:21:39;2.00;;;0.90;;
5650;SDS011;40241;52.684;9.758;2022-07-29T00:24:05;0.60;;;0.50;;
5650;SDS011;40241;52.684;9.758;2022-07-29T00:26:30;0.60;;;0.40;;
5650;SDS011;40241;52.684;9.758;2022-07-29T00:29:00;2.10;;;0.80;;
5650;SDS011;40241;52.684;9.758;2022-07-29T00:31:27;2.50;;;0.90;;
5650;SDS011;40241;52.684;9.758;2022-07-29T00:33:52;1.03;;;0.60;;
5650;SDS011;40241;52.684;9.758;2022-07-29T00:36:18;1.13;;;0.80;;
5650;SDS011;40241;52.684;9.758;2022-07-29T00:38:45;1.73;;;0.67;;
5650;SDS011;40241;52.684;9.758;2022-07-29T00:41:14;1.33;;;0.70;;
5650;SDS011;40241;52.684;9.758;2022-07-29T00:43:40;0.90;;;0.70;;
5650;SDS011;40241;52.684;9.758;2022-07-29T00:46:06;2.20;;;0.70;;
5650;SDS011;40241;52.684;9.758;2022-07-29T00:48:32;2.80;;;0.67;;
5650;SDS011;40241;52.684;9.758;2022-07-29T00:50:57;3.53;;;0.80;;
5650;SDS011;40241;52.684;9.758;2022-07-29T00:53:25;5.47;;;0.90;;
5650;SDS011;40241;52.684;9.758;2022-07-29T00:55:50;1.70;;;0.80;;
5650;SDS011;40241;52.684;9.758;2022-07-29T00:58:16;1.33;;;0.93;;
5650;SDS011;40241;52.684;9.758;2022-07-29T01:00:41;1.23;;;0.63;;
5650;SDS011;40241;52.684;9.758;2022-07-29T01:03:07;3.20;;;0.70;;
5650;SDS011;40241;52.684;9.758;2022-07-29T01:05:33;2.50;;;0.70;;
5650;SDS011;40241;52.684;9.758;2022-07-29T01:07:59;1.63;;;0.90;;
5650;SDS011;40241;52.684;9.758;2022-07-29T01:10:25;4.57;;;0.60;;
5650;SDS011;40241;52.684;9.758;2022-07-29T01:12:52;1.37;;;0.70;;
5650;SDS011;40241;52.684;9.758;2022-07-29T01:15:19;0.90;;;0.90;;
5650;SDS011;40241;52.684;9.758;2022-07-29T01:17:47;5.50;;;0.80;;
5650;SDS011;40241;52.684;9.758;2022-07-29T01:20:31;1.73;;;0.60;;
5650;SDS011;40241;52.684;9.758;2022-07-29T01:23:18;0.90;;;0.80;;
5650;SDS011;40241;52.684;9.758;2022-07-29T01:26:15;1.63;;;0.60;;
5650;SDS011;40241;52.684;9.758;2022-07-29T01:31:26;1.57;;;0.67;;
5650;SDS011;40241;52.684;9.758;2022-07-29T01:34:18;1.57;;;0.73;;
5650;SDS011;40241;52.684;9.758;2022-07-29T01:36:48;1.27;;;0.63;;
5650;SDS011;40241;52.684;9.758;2022-07-29T01:42:38;2.40;;;0.90;;
5650;SDS011;40241;52.684;9.758;2022-07-29T01:47:43;0.70;;;0.60;;
5650;SDS011;40241;52.684;9.758;2022-07-29T01:50:14;1.40;;;0.80;;
5650;SDS011;40241;52.684;9.758;2022-07-29T01:52:44;3.17;;;0.83;;
5650;SDS011;40241;52.684;9.758;2022-07-29T01:55:28;1.77;;;0.80;;
5650;SDS011;40241;52.684;9.758;2022-07-29T01:57:56;0.57;;;0.50;;
5650;SDS011;40241;52.684;9.758;2022-07-29T02:00:24;0.70;;;0.60;;
5650;SDS011;40241;52.684;9.758;2022-07-29T02:02:50;0.60;;;0.60;;
5650;SDS011;40241;52.684;9.758;2022-07-29T02:05:18;1.23;;;0.70;;
5650;SDS011;40241;52.684;9.758;2022-07-29T02:07:46;3.10;;;0.80;;
5650;SDS011;40241;52.684;9.758;2022-07-29T02:10:13;2.70;;;0.80;;
5650;SDS011;40241;52.684;9.758;2022-07-29T02:12:40;2.30;;;0.90;;
5650;SDS011;40241;52.684;9.758;2022-07-29T02:15:08;2.63;;;0.90;;
5650;SDS011;40241;52.684;9.758;2022-07-29T02:17:36;1.10;;;0.70;;
5650;SDS011;40241;52.684;9.758;2022-07-29T02:20:06;1.77;;;1.10;;
5650;SDS011;40241;52.684;9.758;2022-07-29T02:22:33;1.50;;;1.00;;
5650;SDS011;40241;52.684;9.758;2022-07-29T02:25:02;3.33;;;0.80;;
5650;SDS011;40241;52.684;9.758;2022-07-29T02:27:28;1.13;;;0.70;;
5650;SDS011;40241;52.684;9.758;2022-07-29T02:29:54;1.33;;;0.67;;
5650;SDS011;40241;52.684;9.758;2022-07-29T02:32:22;5.13;;;0.70;;
5650;SDS011;40241;52.684;9.758;2022-07-29T02:34:50;1.47;;;0.70;;
5650;SDS011;40241;52.684;9.758;2022-07-29T02:37:17;1.07;;;0.70;;
5650;SDS011;40241;52.684;9.758;2022-07-29T02:39:44;0.90;;;0.70;;
5650;SDS011;40241;52.684;9.758;2022-07-29T02:42:12;0.90;;;0.60;;
5650;SDS011;40241;52.684;9.758;2022-07-29T02:44:40;0.60;;;0.47;;
5650;SDS011;40241;52.684;9.758;2022-07-29T02:52:18;1.33;;;0.50;;
5650;SDS011;40241;52.684;9.758;2022-07-29T02:54:55;0.60;;;0.60;;
5650;SDS011;40241;52.684;9.758;2022-07-29T03:00:08;2.13;;;1.03;;
5650;SDS011;40241;52.684;9.758;2022-07-29T03:02:36;0.80;;;0.70;;
5650;SDS011;40241;52.684;9.758;2022-07-29T03:05:08;1.37;;;0.70;;
5650;SDS011;40241;52.684;9.758;2022-07-29T03:07:38;2.23;;;0.90;;
5650;SDS011;40241;52.684;9.758;2022-07-29T03:10:06;1.83;;;1.00;;
5650;SDS011;40241;52.684;9.758;2022-07-29T03:12:33;1.53;;;0.67;;
5650;SDS011;40241;52.684;9.758;2022-07-29T03:14:59;2.50;;;0.70;;
5650;SDS011;40241;52.684;9.758;2022-07-29T03:17:26;1.90;;;0.87;;
5650;SDS011;40241;52.684;9.758;2022-07-29T03:19:52;0.70;;;0.70;;
5650;SDS011;40241;52.684;9.758;2022-07-29T03:22:18;1.07;;;0.80;;
5650;SDS011;40241;52.684;9.758;2022-07-29T03:24:44;0.80;;;0.60;;
5650;SDS011;40241;52.684;9.758;2022-07-29T03:27:09;0.73;;;0.73;;
5650;SDS011;40241;52.684;9.758;2022-07-29T03:29:34;2.10;;;0.93;;
5650;SDS011;40241;52.684;9.758;2022-07-29T03:32:03;1.83;;;0.80;;
5650;SDS011;40241;52.684;9.758;2022-07-29T03:34:30;0.80;;;0.70;;
5650;SDS011;40241;52.684;9.758;2022-07-29T03:36:56;2.30;;;0.70;;
5650;SDS011;40241;52.684;9.758;2022-07-29T03:39:21;1.43;;;1.00;;
5650;SDS011;40241;52.684;9.758;2022-07-29T03:41:52;1.37;;;0.70;;
5650;SDS011;40241;52.684;9.758;2022-07-29T03:44:20;0.80;;;0.80;;
5650;SDS011;40241;52.684;9.758;2022-07-29T03:46:48;2.53;;;1.07;;
5650;SDS011;40241;52.684;9.758;2022-07-29T03:49:16;1.73;;;0.80;;
5650;SDS011;40241;52.684;9.758;2022-07-29T03:51:43;1.37;;;0.60;;
5650;SDS011;40241;52.684;9.758;2022-07-29T03:54:09;1.40;;;0.80;;
5650;SDS011;40241;52.684;9.758;2022-07-29T03:56:37;1.13;;;0.70;;
5650;SDS011;40241;52.684;9.758;2022-07-29T03:59:05;1.57;;;0.87;;
5650;SDS011;40241;52.684;9.758;2022-07-29T04:01:32;0.97;;;0.80;;
5650;SDS011;40241;52.684;9.758;2022-07-29T04:03:59;1.53;;;1.07;;
5650;SDS011;40241;52.684;9.758;2022-07-29T04:06:25;1.13;;;1.00;;
5650;SDS011;40241;52.684;9.758;2022-07-29T04:08:51;1.90;;;0.80;;
5650;SDS011;40241;52.684;9.758;2022-07-29T04:11:16;1.30;;;0.90;;
5650;SDS011;40241;52.684;9.758;2022-07-29T04:13:42;5.70;;;1.23;;
5650;SDS011;40241;52.684;9.758;2022-07-29T04:16:07;2.00;;;0.90;;
5650;SDS011;40241;52.684;9.758;2022-07-29T04:18:32;5.70;;;0.80;;
5650;SDS011;40241;52.684;9.758;2022-07-29T04:20:58;1.17;;;0.80;;
5650;SDS011;40241;52.684;9.758;2022-07-29T04:23:25;1.00;;;0.70;;
5650;SDS011;40241;52.684;9.758;2022-07-29T04:25:51;1.97;;;0.73;;
5650;SDS011;40241;52.684;9.758;2022-07-29T04:28:17;0.73;;;0.73;;
5650;SDS011;40241;52.684;9.758;2022-07-29T04:30:42;0.70;;;0.70;;
5650;SDS011;40241;52.684;9.758;2022-07-29T04:33:07;4.13;;;0.70;;
5650;SDS011;40241;52.684;9.758;2022-07-29T04:35:34;1.13;;;0.80;;
5650;SDS011;40241;52.684;9.758;2022-07-29T04:38:03;5.13;;;1.30;;
5650;SDS011;40241;52.684;9.758;2022-07-29T04:40:30;0.90;;;0.80;;
5650;SDS011;40241;52.684;9.758;2022-07-29T04:42:55;1.83;;;1.10;;
5650;SDS011;40241;52.684;9.758;2022-07-29T04:45:21;1.40;;;0.93;;
5650;SDS011;40241;52.684;9.758;2022-07-29T04:47:46;0.63;;;0.63;;
5650;SDS011;40241;52.684;9.758;2022-07-29T04:50:12;1.00;;;1.00;;
5650;SDS011;40241;52.684;9.758;2022-07-29T04:52:37;1.33;;;0.87;;
5650;SDS011;40241;52.684;9.758;2022-07-29T04:55:03;0.83;;;0.80;;
5650;SDS011;40241;52.684;9.758;2022-07-29T04:57:29;4.07;;;1.27;;
5650;SDS011;40241;52.684;9.758;2022-07-29T04:59:55;1.70;;;1.07;;
5650;SDS011;40241;52.684;9.758;2022-07-29T05:02:20;1.27;;;0.80;;
5650;SDS011;40241;52.684;9.758;2022-07-29T05:04:46;0.70;;;0.70;;
5650;SDS011;40241;52.684;9.758;2022-07-29T05:07:12;2.03;;;0.90;;
5650;SDS011;40241;52.684;9.758;2022-07-29T05:09:37;1.23;;;0.80;;
5650;SDS011;40241;52.684;9.758;2022-07-29T05:12:03;1.47;;;0.80;;
5650;SDS011;40241;52.684;9.758;2022-07-29T05:14:28;1.17;;;0.97;;
5650;SDS011;40241;52.684;9.758;2022-07-29T05:16:53;2.13;;;1.00;;
5650;SDS011;40241;52.684;9.758;2022-07-29T05:19:21;1.20;;;1.10;;
5650;SDS011;40241;52.684;9.758;2022-07-29T05:21:47;1.37;;;0.90;;
5650;SDS011;40241;52.684;9.758;2022-07-29T05:24:12;1.27;;;0.70;;
5650;SDS011;40241;52.684;9.758;2022-07-29T05:26:38;1.07;;;0.60;;
5650;SDS011;40241;52.684;9.758;2022-07-29T05:29:04;0.97;;;0.73;;
5650;SDS011;40241;52.684;9.758;2022-07-29T05:31:29;1.07;;;0.97;;
5650;SDS011;40241;52.684;9.758;2022-07-29T05:33:55;2.00;;;1.20;;
5650;SDS011;40241;52.684;9.758;2022-07-29T05:36:20;3.10;;;1.67;;
5650;SDS011;40241;52.684;9.758;2022-07-29T05:38:45;1.70;;;1.10;;
5650;SDS011;40241;52.684;9.758;2022-07-29T05:41:11;2.37;;;1.10;;
5650;SDS011;40241;52.684;9.758;2022-07-29T05:43:36;2.30;;;1.20;;
5650;SDS011;40241;52.684;9.758;2022-07-29T05:46:02;2.20;;;0.67;;
5650;SDS011;40241;52.684;9.758;2022-07-29T05:48:27;3.47;;;1.10;;
5650;SDS011;40241;52.684;9.758;2022-07-29T05:50:53;2.07;;;1.07;;
5650;SDS011;40241;52.684;9.758;2022-07-29T05:53:18;1.60;;;0.90;;
5650;SDS011;40241;52.684;9.758;2022-07-29T05:55:43;1.27;;;1.00;;
5650;SDS011;40241;52.684;9.758;2022-07-29T05:58:09;1.10;;;1.00;;
5650;SDS011;40241;52.684;9.758;2022-07-29T06:00:34;1.63;;;0.90;;
5650;SDS011;40241;52.684;9.758;2022-07-29T06:03:00;0.90;;;0.80;;
5650;SDS011;40241;52.684;9.758;2022-07-29T06:05:25;1.37;;;1.03;;
5650;SDS011;40241;52.684;9.758;2022-07-29T06:07:50;3.07;;;1.13;;
5650;SDS011;40241;52.684;9.758;2022-07-29T06:10:16;1.37;;;1.17;;
5650;SDS011;40241;52.684;9.758;2022-07-29T06:12:41;0.73;;;0.73;;
5650;SDS011;40241;52.684;9.758;2022-07-29T06:15:06;2.37;;;1.33;;
5650;SDS011;40241;52.684;9.758;2022-07-29T06:17:32;1.40;;;1.30;;
5650;SDS011;40241;52.684;9.758;2022-07-29T06:19:58;4.83;;;1.30;;
5650;SDS011;40241;52.684;9.758;2022-07-29T06:22:23;1.60;;;1.07;;
5650;SDS011;40241;52.684;9.758;2022-07-29T06:24:48;1.37;;;1.10;;
5650;SDS011;40241;52.684;9.758;2022-07-29T06:27:14;4.07;;;1.10;;
5650;SDS011;40241;52.684;9.758;2022-07-29T06:29:39;1.50;;;1.00;;
5650;SDS011;40241;52.684;9.758;2022-07-29T06:32:05;1.30;;;1.03;;
5650;SDS011;40241;52.684;9.758;2022-07-29T06:34:30;1.53;;;1.03;;
5650;SDS011;40241;52.684;9.758;2022-07-29T06:36:56;2.93;;;1.20;;
5650;SDS011;40241;52.684;9.758;2022-07-29T06:39:21;2.43;;;1.10;;
5650;SDS011;40241;52.684;9.758;2022-07-29T06:41:47;1.37;;;1.20;;
5650;SDS011;40241;52.684;9.758;2022-07-29T06:44:16;1.27;;;1.13;;
5650;SDS011;40241;52.684;9.758;2022-07-29T06:46:43;1.10;;;1.00;;
5650;SDS011;40241;52.684;9.758;2022-07-29T06:49:08;1.10;;;1.00;;
5650;SDS011;40241;52.684;9.758;2022-07-29T06:51:34;1.10;;;1.10;;
5650;SDS011;40241;52.684;9.758;2022-07-29T06:54:00;3.60;;;1.60;;
5650;SDS011;40241;52.684;9.758;2022-07-29T06:56:26;1.40;;;1.30;;
5650;SDS011;40241;52.684;9.758;2022-07-29T06:58:52;1.77;;;1.13;;
5650;SDS011;40241;52.684;9.758;2022-07-29T07:01:17;1.23;;;1.10;;
5650;SDS011;40241;52.684;9.758;2022-07-29T07:03:43;0.93;;;0.93;;
5650;SDS011;40241;52.684;9.758;2022-07-29T07:06:08;1.40;;;1.30;;
5650;SDS011;40241;52.684;9.758;2022-07-29T07:08:33;1.27;;;1.17;;
5650;SDS011;40241;52.684;9.758;2022-07-29T07:10:59;1.77;;;1.40;;
5650;SDS011;40241;52.684;9.758;2022-07-29T07:13:24;1.00;;;0.80;;
5650;SDS011;40241;52.684;9.758;2022-07-29T07:15:50;4.00;;;1.70;;
5650;SDS011;40241;52.684;9.758;2022-07-29T07:18:17;1.20;;;0.83;;
5650;SDS011;40241;52.684;9.758;2022-07-29T07:20:43;1.17;;;1.07;;
5650;SDS011;40241;52.684;9.758;2022-07-29T07:23:09;1.30;;;1.20;;
5650;SDS011;40241;52.684;9.758;2022-07-29T07:25:34;1.70;;;1.10;;
5650;SDS011;40241;52.684;9.758;2022-07-29T07:28:00;1.93;;;1.70;;
5650;SDS011;40241;52.684;9.758;2022-07-29T07:30:25;5.13;;;1.80;;
5650;SDS011;40241;52.684;9.758;2022-07-29T07:32:52;2.23;;;1.40;;
5650;SDS011;40241;52.684;9.758;2022-07-29T07:35:18;2.57;;;1.47;;
5650;SDS011;40241;52.684;9.758;2022-07-29T07:37:43;1.60;;;1.13;;
5650;SDS011;40241;52.684;9.758;2022-07-29T07:40:09;2.00;;;1.20;;
5650;SDS011;40241;52.684;9.758;2022-07-29T07:42:36;1.30;;;0.97;;
5650;SDS011;40241;52.684;9.758;2022-07-29T07:45:03;1.00;;;0.90;;
5650;SDS011;40241;52.684;9.758;2022-07-29T07:47:29;1.77;;;1.00;;
5650;SDS011;40241;52.684;9.758;2022-07-29T07:49:55;2.40;;;1.30;;
5650;SDS011;40241;52.684;9.758;2022-07-29T07:52:20;2.83;;;1.20;;
5650;SDS011;40241;52.684;9.758;2022-07-29T07:54:47;2.20;;;1.40;;
5650;SDS011;40241;52.684;9.758;2022-07-29T07:57:13;1.80;;;1.30;;
5650;SDS011;40241;52.684;9.758;2022-07-29T07:59:39;1.23;;;1.13;;
5650;SDS011;40241;52.684;9.758;2022-07-29T08:02:05;3.60;;;1.33;;
5650;SDS011;40241;52.684;9.758;2022-07-29T08:04:30;1.33;;;1.23;;
5650;SDS011;40241;52.684;9.758;2022-07-29T08:06:56;1.20;;;1.00;;
5650;SDS011;40241;52.684;9.758;2022-07-29T08:09:22;1.90;;;1.30;;
5650;SDS011;40241;52.684;9.758;2022-07-29T08:11:49;1.47;;;1.30;;
5650;SDS011;40241;52.684;9.758;2022-07-29T08:14:15;2.17;;;1.30;;
5650;SDS011;40241;52.684;9.758;2022-07-29T08:16:41;1.40;;;1.30;;
5650;SDS011;40241;52.684;9.758;2022-07-29T08:19:07;2.97;;;1.50;;
5650;SDS011;40241;52.684;9.758;2022-07-29T08:21:33;4.30;;;1.43;;
5650;SDS011;40241;52.684;9.758;2022-07-29T08:23:58;1.53;;;1.17;;
5650;SDS011;40241;52.684;9.758;2022-07-29T08:26:42;2.00;;;1.50;;
5650;SDS011;40241;52.684;9.758;2022-07-29T08:29:08;1.57;;;1.23;;
5650;SDS011;40241;52.684;9.758;2022-07-29T08:31:35;2.57;;;1.30;;
5650;SDS011;40241;52.684;9.758;2022-07-29T08:34:01;6.07;;;1.13;;
5650;SDS011;40241;52.684;9.758;2022-07-29T08:36:28;1.43;;;1.20;;
5650;SDS011;40241;52.684;9.758;2022-07-29T08:38:53;1.03;;;0.93;;
5650;SDS011;40241;52.684;9.758;2022-07-29T08:41:19;2.20;;;1.10;;
5650;SDS011;40241;52.684;9.758;2022-07-29T08:43:45;2.37;;;1.30;;
5650;SDS011;40241;52.684;9.758;2022-07-29T08:46:11;2.17;;;1.17;;
5650;SDS011;40241;52.684;9.758;2022-07-29T08:48:36;2.43;;;1.00;;
5650;SDS011;40241;52.684;9.758;2022-07-29T08:51:03;4.03;;;1.37;;
5650;SDS011;40241;52.684;9.758;2022-07-29T08:53:31;1.03;;;1.00;;
5650;SDS011;40241;52.684;9.758;2022-07-29T08:55:57;2.60;;;1.30;;
5650;SDS011;40241;52.684;9.758;2022-07-29T08:58:23;2.57;;;1.30;;
5650;SDS011;40241;52.684;9.758;2022-07-29T09:00:51;2.40;;;1.37;;
5650;SDS011;40241;52.684;9.758;2022-07-29T09:03:20;1.00;;;1.00;;
5650;SDS011;40241;52.684;9.758;2022-07-29T09:05:50;1.97;;;1.67;;
5650;SDS011;40241;52.684;9.758;2022-07-29T09:08:16;2.70;;;1.50;;
5650;SDS011;40241;52.684;9.758;2022-07-29T09:10:42;3.00;;;1.37;;
5650;SDS011;40241;52.684;9.758;2022-07-29T09:13:09;1.70;;;1.50;;
5650;SDS011;40241;52.684;9.758;2022-07-29T09:15:34;1.10;;;1.00;;
5650;SDS011;40241;52.684;9.758;2022-07-29T09:18:00;1.83;;;0.83;;
5650;SDS011;40241;52.684;9.758;2022-07-29T09:20:25;1.90;;;1.30;;
5650;SDS011;40241;52.684;9.758;2022-07-29T09:23:11;1.73;;;0.80;;
5650;SDS011;40241;52.684;9.758;2022-07-29T09:25:38;2.97;;;1.20;;
5650;SDS011;40241;52.684;9.758;2022-07-29T09:28:15;1.30;;;1.20;;
5650;SDS011;40241;52.684;9.758;2022-07-29T09:30:55;1.00;;;0.90;;
5650;SDS011;40241;52.684;9.758;2022-07-29T09:33:23;1.80;;;1.00;;
5650;SDS011;40241;52.684;9.758;2022-07-29T09:36:08;1.00;;;1.00;;
5650;SDS011;40241;52.684;9.758;2022-07-29T09:38:34;1.47;;;1.13;;
5650;SDS011;40241;52.684;9.758;2022-07-29T09:41:02;1.90;;;0.93;;
5650;SDS011;40241;52.684;9.758;2022-07-29T09:43:28;5.00;;;1.10;;
5650;SDS011;40241;52.684;9.758;2022-07-29T09:45:54;2.30;;;0.90;;
5650;SDS011;40241;52.684;9.758;2022-07-29T09:48:21;1.53;;;1.13;;
5650;SDS011;40241;52.684;9.758;2022-07-29T09:50:48;2.30;;;1.20;;
5650;SDS011;40241;52.684;9.758;2022-07-29T09:55:58;1.20;;;0.93;;
5650;SDS011;40241;52.684;9.758;2022-07-29T09:58:24;1.60;;;1.30;;
5650;SDS011;40241;52.684;9.758;2022-07-29T10:00:50;2.60;;;1.20;;
5650;SDS011;40241;52.684;9.758;2022-07-29T10:03:16;2.07;;;1.30;;
5650;SDS011;40241;52.684;9.758;2022-07-29T10:05:43;1.77;;;1.10;;
5650;SDS011;40241;52.684;9.758;2022-07-29T10:08:10;1.53;;;1.20;;
5650;SDS011;40241;52.684;9.758;2022-07-29T10:10:38;1.70;;;1.20;;
5650;SDS011;40241;52.684;9.758;2022-07-29T10:13:10;1.87;;;1.07;;
5650;SDS011;40241;52.684;9.758;2022-07-29T10:15:37;1.17;;;1.10;;
5650;SDS011;40241;52.684;9.758;2022-07-29T10:18:06;1.10;;;0.90;;
5650;SDS011;40241;52.684;9.758;2022-07-29T10:20:33;1.40;;;1.10;;
5650;SDS011;40241;52.684;9.758;2022-07-29T10:22:59;1.20;;;1.03;;
5650;SDS011;40241;52.684;9.758;2022-07-29T10:25:25;1.20;;;1.10;;
5650;SDS011;40241;52.684;9.758;2022-07-29T10:27:51;1.30;;;1.00;;
5650;SDS011;40241;52.684;9.758;2022-07-29T10:30:18;1.73;;;1.00;;
5650;SDS011;40241;52.684;9.758;2022-07-29T10:38:26;1.47;;;1.07;;
5650;SDS011;40241;52.684;9.758;2022-07-29T10:41:06;1.20;;;1.10;;
5650;SDS011;40241;52.684;9.758;2022-07-29T10:43:51;0.97;;;0.87;;
5650;SDS011;40241;52.684;9.758;2022-07-29T10:46:25;1.37;;;1.00;;
5650;SDS011;40241;52.684;9.758;2022-07-29T10:54:15;1.10;;;1.00;;
5650;SDS011;40241;52.684;9.758;2022-07-29T10:56:41;1.13;;;1.03;;
5650;SDS011;40241;52.684;9.758;2022-07-29T10:59:22;1.63;;;1.30;;
5650;SDS011;40241;52.684;9.758;2022-07-29T11:01:51;2.00;;;1.27;;
5650;SDS011;40241;52.684;9.758;2022-07-29T11:07:08;2.20;;;1.20;;
5650;SDS011;40241;52.684;9.758;2022-07-29T11:09:33;2.00;;;1.00;;
5650;SDS011;40241;52.684;9.758;2022-07-29T11:11:59;1.73;;;1.20;;
5650;SDS011;40241;52.684;9.758;2022-07-29T11:17:19;1.50;;;1.20;;
5650;SDS011;40241;52.684;9.758;2022-07-29T11:19:45;1.13;;;1.00;;
5650;SDS011;40241;52.684;9.758;2022-07-29T11:22:11;0.90;;;0.70;;
5650;SDS011;40241;52.684;9.758;2022-07-29T11:27:54;1.67;;;0.80;;
5650;SDS011;40241;52.684;9.758;2022-07-29T11:30:47;2.20;;;0.87;;
5650;SDS011;40241;52.684;9.758;2022-07-29T11:33:30;1.00;;;0.70;;
5650;SDS011;40241;52.684;9.758;2022-07-29T11:36:10;1.17;;;0.73;;
5650;SDS011;40241;52.684;9.758;2022-07-29T11:38:37;3.60;;;1.10;;
5650;SDS011;40241;52.684;9.758;2022-07-29T11:43:54;1.90;;;0.70;;
5650;SDS011;40241;52.684;9.758;2022-07-29T11:49:23;1.57;;;0.90;;
5650;SDS011;40241;52.684;9.758;2022-07-29T11:51:53;1.10;;;0.97;;
5650;SDS011;40241;52.684;9.758;2022-07-29T11:54:26;3.10;;;1.47;;
5650;SDS011;40241;52.684;9.758;2022-07-29T11:56:57;1.33;;;0.80;;
5650;SDS011;40241;52.684;9.758;2022-07-29T11:59:23;1.30;;;0.70;;
5650;SDS011;40241;52.684;9.758;2022-07-29T12:01:53;1.70;;;0.90;;
5650;SDS011;40241;52.684;9.758;2022-07-29T12:04:18;3.00;;;1.50;;
5650;SDS011;40241;52.684;9.758;2022-07-29T12:06:48;1.00;;;0.80;;
5650;SDS011;40241;52.684;9.758;2022-07-29T12:09:15;1.40;;;1.13;;
5650;SDS011;40241;52.684;9.758;2022-07-29T12:11:40;1.37;;;1.27;;
5650;SDS011;40241;52.684;9.758;2022-07-29T12:14:06;2.77;;;1.00;;
5650;SDS011;40241;52.684;9.758;2022-07-29T12:16:35;1.47;;;0.80;;
5650;SDS011;40241;52.684;9.758;2022-07-29T12:19:02;1.10;;;1.00;;
5650;SDS011;40241;52.684;9.758;2022-07-29T12:21:47;1.60;;;1.20;;
5650;SDS011;40241;52.684;9.758;2022-07-29T12:24:14;9.10;;;1.20;;
5650;SDS011;40241;52.684;9.758;2022-07-29T12:26:49;1.20;;;0.80;;
5650;SDS011;40241;52.684;9.758;2022-07-29T12:29:15;1.33;;;1.00;;
5650;SDS011;40241;52.684;9.758;2022-07-29T12:31:42;1.13;;;0.90;;
5650;SDS011;40241;52.684;9.758;2022-07-29T12:34:08;2.40;;;0.93;;
5650;SDS011;40241;52.684;9.758;2022-07-29T12:36:34;0.90;;;0.70;;
5650;SDS011;40241;52.684;9.758;2022-07-29T12:38:59;1.37;;;1.00;;
5650;SDS011;40241;52.684;9.758;2022-07-29T12:41:27;1.40;;;0.87;;
5650;SDS011;40241;52.684;9.758;2022-07-29T12:43:53;1.73;;;1.00;;
5650;SDS011;40241;52.684;9.758;2022-07-29T12:46:19;1.97;;;1.03;;
5650;SDS011;40241;52.684;9.758;2022-07-29T12:48:49;4.10;;;1.00;;
5650;SDS011;40241;52.684;9.758;2022-07-29T12:51:25;1.27;;;0.77;;
5650;SDS011;40241;52.684;9.758;2022-07-29T12:56:30;2.90;;;1.00;;
5650;SDS011;40241;52.684;9.758;2022-07-29T12:58:55;1.40;;;1.30;;
5650;SDS011;40241;52.684;9.758;2022-07-29T13:01:21;1.73;;;1.17;;
5650;SDS011;40241;52.684;9.758;2022-07-29T13:09:13;2.10;;;0.90;;
5650;SDS011;40241;52.684;9.758;2022-07-29T13:11:41;2.53;;;1.00;;
5650;SDS011;40241;52.684;9.758;2022-07-29T13:14:14;0.97;;;0.97;;
5650;SDS011;40241;52.684;9.758;2022-07-29T13:16:59;1.07;;;1.00;;
5650;SDS011;40241;52.684;9.758;2022-07-29T13:19:47;1.30;;;1.20;;
5650;SDS011;40241;52.684;9.758;2022-07-29T13:22:30;3.00;;;1.30;;
5650;SDS011;40241;52.684;9.758;2022-07-29T13:27:24;2.07;;;1.40;;
5650;SDS011;40241;52.684;9.758;2022-07-29T13:29:51;1.40;;;1.20;;
5650;SDS011;40241;52.684;9.758;2022-07-29T13:32:18;1.50;;;1.40;;
5650;SDS011;40241;52.684;9.758;2022-07-29T13:34:44;1.50;;;1.40;;
5650;SDS011;40241;52.684;9.758;2022-07-29T13:37:10;3.83;;;1.80;;
5650;SDS011;40241;52.684;9.758;2022-07-29T13:39:35;1.47;;;1.30;;
5650;SDS011;40241;52.684;9.758;2022-07-29T13:42:02;1.40;;;1.30;;
5650;SDS011;40241;52.684;9.758;2022-07-29T13:44:27;1.40;;;1.30;;
5650;SDS011;40241;52.684;9.758;2022-07-29T13:46:53;1.53;;;1.43;;
5650;SDS011;40241;52.684;9.758;2022-07-29T13:49:18;2.30;;;1.60;;
5650;SDS011;40241;52.684;9.758;2022-07-29T13:51:43;1.63;;;1.40;;
5650;SDS011;40241;52.684;9.758;2022-07-29T13:54:09;2.43;;;1.40;;
5650;SDS011;40241;52.684;9.758;2022-07-29T13:56:34;1.40;;;1.20;;
5650;SDS011;40241;52.684;9.758;2022-07-29T13:58:59;1.10;;;1.00;;
5650;SDS011;40241;52.684;9.758;2022-07-29T14:01:25;1.57;;;1.37;;
5650;SDS011;40241;52.684;9.758;2022-07-29T14:03:51;2.03;;;1.50;;
5650;SDS011;40241;52.684;9.758;2022-07-29T14:06:17;1.50;;;1.40;;
5650;SDS011;40241;52.684;9.758;2022-07-29T14:08:42;2.50;;;1.83;;
5650;SDS011;40241;52.684;9.758;2022-07-29T14:11:07;3.43;;;1.70;;
5650;SDS011;40241;52.684;9.758;2022-07-29T14:13:33;1.33;;;1.23;;
5650;SDS011;40241;52.684;9.758;2022-07-29T14:15:58;1.87;;;1.73;;
5650;SDS011;40241;52.684;9.758;2022-07-29T14:18:24;1.40;;;1.30;;
5650;SDS011;40241;52.684;9.758;2022-07-29T14:20:49;3.27;;;1.50;;
5650;SDS011;40241;52.684;9.758;2022-07-29T14:23:16;1.20;;;1.10;;
5650;SDS011;40241;52.684;9.758;2022-07-29T14:25:41;3.07;;;1.73;;
5650;SDS011;40241;52.684;9.758;2022-07-29T14:28:07;4.10;;;1.30;;
5650;SDS011;40241;52.684;9.758;2022-07-29T14:30:32;1.80;;;1.43;;
5650;SDS011;40241;52.684;9.758;2022-07-29T14:32:57;1.30;;;1.20;;
5650;SDS011;40241;52.684;9.758;2022-07-29T14:35:22;2.00;;;1.80;;
5650;SDS011;40241;52.684;9.758;2022-07-29T14:37:48;1.50;;;1.23;;
5650;SDS011;40241;52.684;9.758;2022-07-29T14:40:14;2.80;;;1.27;;
5650;SDS011;40241;52.684;9.758;2022-07-29T14:42:39;1.47;;;1.37;;
5650;SDS011;40241;52.684;9.758;2022-07-29T14:45:05;1.97;;;1.40;;
5650;SDS011;40241;52.684;9.758;2022-07-29T14:47:31;1.23;;;1.13;;
5650;SDS011;40241;52.684;9.758;2022-07-29T14:49:57;1.40;;;1.30;;
5650;SDS011;40241;52.684;9.758;2022-07-29T14:52:22;1.50;;;1.40;;
5650;SDS011;40241;52.684;9.758;2022-07-29T14:54:47;1.40;;;1.30;;
5650;SDS011;40241;52.684;9.758;2022-07-29T14:57:13;1.50;;;1.40;;
5650;SDS011;40241;52.684;9.758;2022-07-29T14:59:38;3.13;;;1.20;;
5650;SDS011;40241;52.684;9.758;2022-07-29T15:02:04;1.40;;;1.20;;
5650;SDS011;40241;52.684;9.758;2022-07-29T15:04:29;1.43;;;1.00;;
5650;SDS011;40241;52.684;9.758;2022-07-29T15:06:55;1.33;;;1.00;;
5650;SDS011;40241;52.684;9.758;2022-07-29T15:09:23;2.30;;;2.10;;
5650;SDS011;40241;52.684;9.758;2022-07-29T15:11:48;2.17;;;1.43;;
5650;SDS011;40241;52.684;9.758;2022-07-29T15:14:14;2.23;;;1.60;;
5650;SDS011;40241;52.684;9.758;2022-07-29T15:16:39;2.60;;;1.47;;
5650;SDS011;40241;52.684;9.758;2022-07-29T15:19:07;1.30;;;1.20;;
5650;SDS011;40241;52.684;9.758;2022-07-29T15:21:32;1.70;;;1.60;;
5650;SDS011;40241;52.684;9.758;2022-07-29T15:23:58;1.93;;;1.53;;
5650;SDS011;40241;52.684;9.758;2022-07-29T15:26:23;1.90;;;1.70;;
5650;SDS011;40241;52.684;9.758;2022-07-29T15:28:48;2.27;;;1.43;;
5650;SDS011;40241;52.684;9.758;2022-07-29T15:31:14;3.03;;;1.90;;
5650;SDS011;40241;52.684;9.758;2022-07-29T15:33:39;1.47;;;1.37;;
5650;SDS011;40241;52.684;9.758;2022-07-29T15:36:05;2.80;;;1.40;;
5650;SDS011;40241;52.684;9.758;2022-07-29T15:38:30;2.00;;;1.33;;
5650;SDS011;40241;52.684;9.758;2022-07-29T15:40:56;4.27;;;1.70;;
5650;SDS011;40241;52.684;9.758;2022-07-29T15:43:22;2.57;;;1.57;;
5650;SDS011;40241;52.684;9.758;2022-07-29T15:45:48;1.30;;;0.97;;
5650;SDS011;40241;52.684;9.758;2022-07-29T15:48:32;1.53;;;1.43;;
5650;SDS011;40241;52.684;9.758;2022-07-29T15:50:58;2.93;;;1.67;;
5650;SDS011;40241;52.684;9.758;2022-07-29T15:53:24;2.13;;;1.43;;
5650;SDS011;40241;52.684;9.758;2022-07-29T15:55:50;1.90;;;1.43;;
5650;SDS011;40241;52.684;9.758;2022-07-29T15:58:15;2.40;;;1.80;;